createdAt,value
2022-08-26T00:00:00.302Z,60
2022-08-26T00:05:00.190Z,60
2022-08-26T00:10:00.246Z,60
2022-08-26T00:15:00.245Z,60
2022-08-26T00:20:00.291Z,60
2022-08-26T00:25:00.296Z,60
2022-08-26T00:30:00.233Z,60
2022-08-26T00:35:00.209Z,60
2022-08-26T00:40:00.796Z,61
2022-08-26T00:45:00.322Z,61
2022-08-26T00:50:00.312Z,61
2022-08-26T00:55:00.285Z,61
2022-08-26T01:00:00.310Z,61
2022-08-26T01:05:00.307Z,62
2022-08-26T01:10:00.279Z,62
2022-08-26T01:15:00.276Z,62
2022-08-26T01:20:00.315Z,62
2022-08-26T01:25:00.296Z,62
2022-08-26T01:30:00.345Z,62
2022-08-26T01:35:00.208Z,62
2022-08-26T01:40:00.408Z,62
2022-08-26T01:45:00.330Z,63
2022-08-26T01:50:00.331Z,63
2022-08-26T01:55:00.186Z,63
2022-08-26T02:00:00.253Z,63
2022-08-26T02:05:00.456Z,63
2022-08-26T02:10:00.249Z,63
2022-08-26T02:15:00.234Z,63
2022-08-26T02:20:00.257Z,64
2022-08-26T02:25:00.313Z,64
2022-08-26T02:30:00.307Z,64
2022-08-26T02:35:00.219Z,64
2022-08-26T02:40:00.388Z,64
2022-08-26T02:45:00.216Z,64
2022-08-26T02:50:00.270Z,64
2022-08-26T02:55:00.281Z,64
2022-08-26T03:00:00.306Z,64
2022-08-26T03:05:02.188Z,65
2022-08-26T03:10:00.278Z,65
2022-08-26T03:15:00.245Z,65
2022-08-26T03:20:00.288Z,65
2022-08-26T03:25:00.335Z,65
2022-08-26T03:30:00.322Z,65
2022-08-26T03:35:00.241Z,65
2022-08-26T03:40:00.352Z,65
2022-08-26T03:45:00.265Z,65
2022-08-26T03:50:00.329Z,66
2022-08-26T03:55:00.827Z,66
2022-08-26T04:00:00.290Z,66
2022-08-26T04:05:00.329Z,66
2022-08-26T04:10:00.311Z,66
2022-08-26T04:15:00.243Z,66
2022-08-26T04:20:00.280Z,66
2022-08-26T04:25:00.303Z,67
2022-08-26T04:30:00.261Z,67
2022-08-26T04:35:00.758Z,68
2022-08-26T04:40:00.392Z,68
2022-08-26T04:45:00.295Z,69
2022-08-26T04:50:00.291Z,68
2022-08-26T04:55:00.292Z,68
2022-08-26T05:00:00.294Z,69
2022-08-26T05:05:00.307Z,69
2022-08-26T05:10:00.281Z,69
2022-08-26T05:15:00.263Z,69
2022-08-26T05:20:00.275Z,70
2022-08-26T05:25:00.336Z,70
2022-08-26T05:30:00.311Z,71
2022-08-26T05:35:00.273Z,72
2022-08-26T05:40:00.377Z,72
2022-08-26T05:45:00.267Z,72
2022-08-26T05:50:00.334Z,73
2022-08-26T05:55:00.305Z,73
2022-08-26T06:00:00.293Z,74
2022-08-26T06:05:00.306Z,74
2022-08-26T06:10:28.265Z,74
2022-08-26T06:15:00.242Z,75
2022-08-26T06:20:00.273Z,75
2022-08-26T06:25:00.271Z,75
2022-08-26T06:30:00.280Z,75
2022-08-26T06:35:00.285Z,75
2022-08-26T06:40:00.364Z,75
2022-08-26T06:45:00.275Z,75
2022-08-26T06:50:00.263Z,75
2022-08-26T06:55:00.292Z,75
2022-08-26T07:00:00.329Z,75
2022-08-26T07:05:00.282Z,75
2022-08-26T07:10:00.297Z,75
2022-08-26T07:15:00.257Z,75
2022-08-26T07:20:00.272Z,75
2022-08-26T07:25:00.310Z,75
2022-08-26T07:30:00.298Z,75
2022-08-26T07:35:00.235Z,75
2022-08-26T07:40:00.338Z,75
2022-08-26T07:45:00.242Z,75
2022-08-26T07:50:00.304Z,75
2022-08-26T07:55:00.300Z,75
2022-08-26T08:00:00.353Z,75
2022-08-26T08:05:00.317Z,75
2022-08-26T08:10:00.238Z,75
2022-08-26T08:15:00.285Z,75
2022-08-26T08:20:00.277Z,75
2022-08-26T08:25:00.237Z,75
2022-08-26T08:30:00.220Z,74
2022-08-26T08:35:00.263Z,74
2022-08-26T08:40:00.349Z,74
2022-08-26T08:45:00.287Z,74
2022-08-26T08:50:00.287Z,74
2022-08-26T08:55:00.270Z,74
2022-08-26T09:00:00.311Z,74
2022-08-26T09:05:00.275Z,74
2022-08-26T09:10:00.180Z,74
2022-08-26T09:15:00.290Z,74
2022-08-26T09:20:00.292Z,74
2022-08-26T09:25:00.197Z,74
2022-08-26T09:30:00.196Z,74
2022-08-26T09:35:00.326Z,73
2022-08-26T09:40:00.361Z,73
2022-08-26T09:45:00.271Z,73
2022-08-26T09:50:00.245Z,73
2022-08-26T09:55:00.281Z,73
2022-08-26T10:00:00.270Z,73
2022-08-26T10:05:09.509Z,73
2022-08-26T10:10:00.215Z,72
2022-08-26T10:15:00.425Z,72
2022-08-26T10:20:00.292Z,72
2022-08-26T10:25:00.279Z,72
2022-08-26T10:30:00.231Z,72
2022-08-26T10:35:00.315Z,72
2022-08-26T10:40:00.292Z,71
2022-08-26T10:45:00.237Z,71
2022-08-26T10:50:03.363Z,71
2022-08-26T10:55:00.338Z,72
2022-08-26T11:00:00.331Z,71
2022-08-26T11:05:00.784Z,71
2022-08-26T11:10:00.237Z,71
2022-08-26T11:15:00.220Z,71
2022-08-26T11:20:02.257Z,71
2022-08-26T11:25:00.182Z,71
2022-08-26T11:30:00.323Z,71
2022-08-26T11:35:00.460Z,71
2022-08-26T11:40:00.294Z,70
2022-08-26T11:45:03.493Z,70
2022-08-26T11:50:00.235Z,70
2022-08-26T11:55:00.275Z,70
2022-08-26T12:00:00.267Z,70
2022-08-26T12:05:00.322Z,70
2022-08-26T12:10:00.556Z,70
2022-08-26T12:15:00.297Z,70
2022-08-26T12:20:00.255Z,70
2022-08-26T12:25:00.238Z,70
2022-08-26T12:30:00.283Z,70
2022-08-26T12:35:00.326Z,70
2022-08-26T12:40:00.349Z,70
2022-08-26T12:45:00.252Z,70
2022-08-26T12:50:00.261Z,70
2022-08-26T12:55:00.197Z,70
2022-08-26T13:00:00.267Z,69
2022-08-26T13:05:00.986Z,69
2022-08-26T13:10:00.223Z,69
2022-08-26T13:15:00.257Z,69
2022-08-26T13:20:03.890Z,69
2022-08-26T13:25:00.295Z,68
2022-08-26T13:30:00.298Z,68
2022-08-26T13:35:00.256Z,68
2022-08-26T13:40:00.345Z,68
2022-08-26T13:45:00.237Z,67
2022-08-26T13:50:00.309Z,67
2022-08-26T13:55:00.628Z,67
2022-08-26T14:00:00.290Z,67
2022-08-26T14:05:00.193Z,67
2022-08-26T14:10:00.246Z,67
2022-08-26T14:15:00.260Z,67
2022-08-26T14:20:00.182Z,67
2022-08-26T14:25:00.297Z,67
2022-08-26T14:30:00.290Z,67
2022-08-26T14:35:00.231Z,67
2022-08-26T14:40:00.299Z,67
2022-08-26T14:45:00.314Z,67
2022-08-26T14:50:00.324Z,67
2022-08-26T14:55:00.308Z,67
2022-08-26T15:00:00.257Z,67
2022-08-26T15:05:00.286Z,67
2022-08-26T15:10:00.234Z,67
2022-08-26T15:15:00.248Z,67
2022-08-26T15:20:00.274Z,67
2022-08-26T15:25:00.287Z,67
2022-08-26T15:30:00.298Z,67
2022-08-26T15:35:00.230Z,67
2022-08-26T15:40:05.303Z,67
2022-08-26T15:45:00.275Z,67
2022-08-26T15:50:00.280Z,67
2022-08-26T15:55:00.257Z,67
2022-08-26T16:00:00.303Z,67
2022-08-26T16:05:00.342Z,67
2022-08-26T16:10:00.320Z,67
2022-08-26T16:15:00.301Z,67
2022-08-26T16:20:00.212Z,67
2022-08-26T16:25:00.329Z,67
2022-08-26T16:30:00.459Z,68
2022-08-26T16:35:00.299Z,68
2022-08-26T16:40:00.352Z,68
2022-08-26T16:45:00.247Z,68
2022-08-26T16:50:00.368Z,68
2022-08-26T16:55:00.214Z,68
2022-08-26T17:00:00.299Z,69
2022-08-26T17:05:00.328Z,69
2022-08-26T17:10:00.249Z,69
2022-08-26T17:15:00.229Z,69
2022-08-26T17:20:00.288Z,69
2022-08-26T17:25:00.218Z,69
2022-08-26T17:30:00.194Z,69
2022-08-26T17:35:00.300Z,69
2022-08-26T17:40:00.851Z,69
2022-08-26T17:45:00.220Z,69
2022-08-26T17:50:00.296Z,69
2022-08-26T17:55:00.272Z,69
2022-08-26T18:00:00.310Z,69
2022-08-26T18:05:00.279Z,69
2022-08-26T18:10:00.230Z,69
2022-08-26T18:15:00.335Z,70
2022-08-26T18:20:00.259Z,69
2022-08-26T18:25:00.234Z,70
2022-08-26T18:30:00.315Z,70
2022-08-26T18:35:00.400Z,70
2022-08-26T18:40:00.351Z,70
2022-08-26T18:45:00.268Z,70
2022-08-26T18:50:00.264Z,70
2022-08-26T18:55:00.899Z,70
2022-08-26T19:00:00.252Z,70
2022-08-26T19:05:00.300Z,70
2022-08-26T19:10:00.280Z,70
2022-08-26T19:15:00.284Z,70
2022-08-26T19:20:00.270Z,70
2022-08-26T19:25:00.325Z,70
2022-08-26T19:30:00.247Z,70
2022-08-26T19:35:00.305Z,70
2022-08-26T19:40:00.365Z,70
2022-08-26T19:45:00.240Z,70
2022-08-26T19:50:00.205Z,70
2022-08-26T19:55:00.263Z,70
2022-08-26T20:00:00.248Z,70
2022-08-26T20:05:00.260Z,70
2022-08-26T20:10:00.286Z,70
2022-08-26T20:15:00.283Z,70
2022-08-26T20:20:00.273Z,70
2022-08-26T20:25:00.274Z,70
2022-08-26T20:30:00.266Z,70
2022-08-26T20:35:00.329Z,71
2022-08-26T20:40:00.402Z,71
2022-08-26T20:45:00.311Z,71
2022-08-26T20:50:00.324Z,71
2022-08-26T20:55:00.283Z,71
2022-08-26T21:00:00.282Z,71
2022-08-26T21:05:00.448Z,72
2022-08-26T21:10:00.241Z,72
2022-08-26T21:15:00.260Z,72
2022-08-26T21:20:00.267Z,72
2022-08-26T21:25:00.210Z,72
2022-08-26T21:30:00.170Z,72
2022-08-26T21:35:00.251Z,72
2022-08-26T21:40:00.274Z,73
2022-08-26T21:45:00.278Z,73
2022-08-26T21:50:00.188Z,73
2022-08-26T21:55:00.327Z,73
2022-08-26T22:00:00.304Z,74
2022-08-26T22:05:00.277Z,74
2022-08-26T22:10:00.230Z,74
2022-08-26T22:15:00.279Z,74
2022-08-26T22:20:00.333Z,74
2022-08-26T22:25:00.332Z,74
2022-08-26T22:30:00.277Z,74
2022-08-26T22:35:00.214Z,75
2022-08-26T22:40:00.361Z,75
2022-08-26T22:45:00.292Z,75
2022-08-26T22:50:00.296Z,75
2022-08-26T22:55:00.178Z,75
2022-08-26T23:00:00.184Z,76
2022-08-26T23:05:00.276Z,76
2022-08-26T23:10:00.194Z,76
2022-08-26T23:15:00.219Z,76
2022-08-26T23:20:00.247Z,76
2022-08-26T23:25:00.217Z,76
2022-08-26T23:30:00.267Z,76
2022-08-26T23:35:00.203Z,76
2022-08-26T23:40:00.295Z,76
2022-08-26T23:45:00.224Z,76
2022-08-26T23:50:00.327Z,76
2022-08-26T23:55:00.250Z,76
